Time;durP1;ratioP1;P1;durP2;ratioP2;P2;SDS_P1;SDS_P2;PMS_P1;PMS_P2;Temp;Humidity;BMP_temperature;BMP_pressure;BME280_temperature;BME280_humidity;BME280_pressure;Samples;Min_cycle;Max_cycle;Signal;HPM_P1;HPM_P2
2023/07/22 00:00:59;;;;;;;4.67;2.90;;;17.60;99.90;;;;;;5047163;28;20182;-67
2023/07/22 00:03:24;;;;;;;2.87;2.50;;;17.50;99.90;;;;;;5045934;28;20175;-66
2023/07/22 00:06:06;;;;;;;4.37;2.50;;;17.40;99.90;;;;;;5046817;28;20667;-68
2023/07/22 00:08:32;;;;;;;2.70;2.43;;;17.40;99.90;;;;;;5045061;28;20673;-67
2023/07/22 00:10:58;;;;;;;2.90;2.60;;;17.30;99.90;;;;;;5044361;28;20497;-68
2023/07/22 00:13:26;;;;;;;2.40;2.20;;;17.20;99.90;;;;;;5046990;28;20988;-66
2023/07/22 00:15:55;;;;;;;3.57;2.50;;;17.20;99.90;;;;;;5045920;28;20535;-67
2023/07/22 00:18:21;;;;;;;2.87;2.50;;;17.00;99.90;;;;;;5045554;28;20464;-66
2023/07/22 00:20:47;;;;;;;5.03;2.20;;;16.90;99.90;;;;;;5043280;28;20521;-66
2023/07/22 00:23:15;;;;;;;4.63;2.80;;;16.80;99.90;;;;;;5047179;28;20234;-66
2023/07/22 00:25:40;;;;;;;3.97;2.83;;;16.70;99.90;;;;;;5045971;28;20863;-67
2023/07/22 00:28:06;;;;;;;2.40;2.20;;;16.50;99.90;;;;;;5044491;28;20430;-67
2023/07/22 00:30:32;;;;;;;4.30;2.90;;;16.40;99.90;;;;;;5045809;28;20182;-68
2023/07/22 00:32:57;;;;;;;3.10;2.80;;;16.30;99.90;;;;;;5045405;28;20213;-67
2023/07/22 00:35:23;;;;;;;5.23;2.30;;;16.30;99.90;;;;;;5044045;28;20276;-68
2023/07/22 00:37:48;;;;;;;3.70;2.80;;;16.30;99.90;;;;;;5046064;28;20194;-68
2023/07/22 00:40:15;;;;;;;2.90;2.60;;;16.20;99.90;;;;;;5047586;28;20194;-66
2023/07/22 00:42:41;;;;;;;3.10;2.80;;;16.20;99.90;;;;;;5045026;28;20184;-66
2023/07/22 00:45:07;;;;;;;3.20;2.60;;;16.20;99.90;;;;;;5046992;28;20912;-67
2023/07/22 00:47:35;;;;;;;6.30;3.10;;;16.10;99.90;;;;;;5044078;28;20198;-68
2023/07/22 00:50:03;;;;;;;2.67;2.40;;;16.00;99.90;;;;;;5047083;28;20409;-67
2023/07/22 00:52:28;;;;;;;3.27;2.53;;;16.10;99.90;;;;;;5044309;28;20811;-67
2023/07/22 00:54:55;;;;;;;3.37;3.07;;;16.10;99.90;;;;;;5046310;28;20408;-67
2023/07/22 00:57:21;;;;;;;4.80;3.50;;;16.10;99.90;;;;;;5041308;28;20334;-67
2023/07/22 00:59:47;;;;;;;4.17;3.03;;;16.00;99.90;;;;;;5045468;28;20796;-65
2023/07/22 01:02:13;;;;;;;4.90;3.07;;;16.10;99.90;;;;;;5043256;28;20863;-67
2023/07/22 01:04:40;;;;;;;4.63;2.40;;;16.10;99.90;;;;;;5045664;28;20566;-66
2023/07/22 01:07:07;;;;;;;4.27;3.60;;;16.10;99.90;;;;;;5044702;28;20486;-67
2023/07/22 01:09:40;;;;;;;3.60;3.17;;;16.00;99.90;;;;;;5043973;28;20414;-67
2023/07/22 01:12:07;;;;;;;3.47;3.17;;;16.00;99.90;;;;;;5043270;28;20991;-67
2023/07/22 01:14:37;;;;;;;4.33;3.20;;;16.10;99.90;;;;;;5046072;28;20416;-67
2023/07/22 01:17:05;;;;;;;6.03;3.03;;;16.10;99.90;;;;;;5043110;28;20946;-66
2023/07/22 01:19:31;;;;;;;3.83;3.43;;;16.10;99.90;;;;;;5038007;28;20823;-67
2023/07/22 01:22:00;;;;;;;4.43;2.87;;;16.00;99.90;;;;;;5043202;28;20410;-67
2023/07/22 01:24:26;;;;;;;5.00;3.27;;;15.80;99.90;;;;;;5044333;28;20410;-66
2023/07/22 01:26:51;;;;;;;4.80;3.40;;;15.70;99.90;;;;;;5043294;28;20422;-67
2023/07/22 01:29:17;;;;;;;3.23;2.93;;;15.80;99.90;;;;;;5043731;28;20892;-67
2023/07/22 01:31:47;;;;;;;3.10;2.70;;;15.70;99.90;;;;;;5044260;28;20172;-66
2023/07/22 01:34:12;;;;;;;3.43;3.13;;;15.60;99.90;;;;;;5037170;28;20657;-67
2023/07/22 01:36:39;;;;;;;3.63;3.33;;;15.60;99.90;;;;;;5044688;28;20453;-66
2023/07/22 01:39:05;;;;;;;2.87;2.67;;;15.70;99.90;;;;;;5045240;28;20188;-66
2023/07/22 01:41:31;;;;;;;4.73;3.23;;;15.70;99.90;;;;;;5042704;28;20405;-67
2023/07/22 01:43:57;;;;;;;3.40;3.10;;;15.70;99.90;;;;;;5042948;28;20501;-66
2023/07/22 01:46:22;;;;;;;3.47;3.17;;;15.70;99.90;;;;;;5043046;28;20170;-66
2023/07/22 01:48:48;;;;;;;3.47;2.77;;;15.70;99.90;;;;;;5043658;28;20188;-66
2023/07/22 01:51:14;;;;;;;2.63;2.43;;;15.70;99.90;;;;;;5041731;28;20243;-66
2023/07/22 01:53:39;;;;;;;4.00;2.90;;;15.70;99.90;;;;;;5043004;28;20178;-66
2023/07/22 01:56:05;;;;;;;4.00;3.70;;;15.70;99.90;;;;;;5042476;28;20178;-66
2023/07/22 01:58:31;;;;;;;3.90;2.90;;;15.70;99.90;;;;;;5044949;28;20197;-66
2023/07/22 02:00:56;;;;;;;4.20;3.67;;;15.70;99.90;;;;;;5043121;28;20202;-66
2023/07/22 02:03:22;;;;;;;5.10;2.70;;;15.80;99.90;;;;;;5041550;28;20185;-66
2023/07/22 02:05:47;;;;;;;3.60;3.30;;;15.90;99.90;;;;;;5044793;28;20169;-66
2023/07/22 02:08:13;;;;;;;3.70;3.20;;;16.00;99.90;;;;;;5043165;28;20210;-66
2023/07/22 02:10:38;;;;;;;4.07;3.00;;;16.00;99.90;;;;;;5041081;28;20264;-66
2023/07/22 02:13:04;;;;;;;3.20;2.90;;;16.00;99.90;;;;;;5042278;28;20526;-65
2023/07/22 02:15:30;;;;;;;4.03;3.60;;;15.90;99.90;;;;;;5043606;28;20178;-66
2023/07/22 02:17:56;;;;;;;3.83;3.07;;;15.90;99.90;;;;;;5043966;28;20208;-66
2023/07/22 02:20:22;;;;;;;7.67;3.50;;;15.80;99.90;;;;;;5042100;28;20850;-66
2023/07/22 02:22:48;;;;;;;3.50;2.90;;;15.70;99.90;;;;;;5042311;28;20195;-66
2023/07/22 02:25:14;;;;;;;3.93;3.00;;;15.70;99.90;;;;;;5043051;28;20193;-66
2023/07/22 02:27:40;;;;;;;3.00;2.70;;;15.80;99.90;;;;;;5044342;28;20191;-66
2023/07/22 02:30:10;;;;;;;3.37;3.00;;;15.70;99.90;;;;;;5043155;28;20434;-66
2023/07/22 02:32:37;;;;;;;3.30;3.00;;;15.80;99.90;;;;;;5042352;28;20496;-66
2023/07/22 02:35:03;;;;;;;5.33;3.87;;;15.80;99.90;;;;;;5040729;28;20910;-66
2023/07/22 02:37:28;;;;;;;2.70;2.50;;;15.80;99.90;;;;;;5041698;28;20457;-66
2023/07/22 02:39:55;;;;;;;2.60;2.37;;;15.80;99.90;;;;;;5041599;28;20320;-66
2023/07/22 02:42:20;;;;;;;4.17;3.00;;;15.80;99.90;;;;;;5043006;28;20190;-66
2023/07/22 02:44:46;;;;;;;3.70;2.80;;;15.90;99.90;;;;;;5042169;28;20495;-66
2023/07/22 02:47:12;;;;;;;4.80;3.07;;;15.80;99.90;;;;;;5041482;28;20183;-67
2023/07/22 02:49:37;;;;;;;3.47;3.10;;;15.80;99.90;;;;;;5042212;28;20526;-67
2023/07/22 02:52:03;;;;;;;3.63;3.33;;;15.80;99.90;;;;;;5039823;28;20177;-67
2023/07/22 02:54:29;;;;;;;4.13;2.97;;;15.80;99.90;;;;;;5044025;28;20208;-67
2023/07/22 02:56:54;;;;;;;2.90;2.60;;;15.80;99.90;;;;;;5042351;28;20503;-67
2023/07/22 02:59:20;;;;;;;5.97;3.33;;;15.80;99.90;;;;;;5041985;28;20281;-67
2023/07/22 03:01:45;;;;;;;3.10;2.80;;;15.70;99.90;;;;;;5043753;28;20180;-66
2023/07/22 03:04:12;;;;;;;3.50;3.07;;;15.70;99.90;;;;;;5041624;28;20229;-67
2023/07/22 03:06:38;;;;;;;3.20;2.90;;;15.70;99.90;;;;;;5041695;28;20205;-66
2023/07/22 03:09:04;;;;;;;3.07;2.77;;;15.80;99.90;;;;;;5039389;28;20411;-66
2023/07/22 03:11:30;;;;;;;2.70;2.50;;;15.70;99.90;;;;;;5045279;28;20187;-67
2023/07/22 03:13:55;;;;;;;3.50;3.20;;;15.70;99.90;;;;;;5042478;28;20732;-67
2023/07/22 03:16:21;;;;;;;4.20;3.47;;;15.70;99.90;;;;;;5043557;28;20172;-67
2023/07/22 03:18:47;;;;;;;2.80;2.53;;;15.70;99.90;;;;;;5040436;28;20218;-67
2023/07/22 03:21:12;;;;;;;3.40;3.10;;;15.70;99.90;;;;;;5043283;28;20173;-67
2023/07/22 03:23:38;;;;;;;3.63;2.87;;;15.70;99.90;;;;;;5041370;28;20170;-67
2023/07/22 03:26:04;;;;;;;3.27;2.97;;;15.70;99.90;;;;;;5043606;28;20261;-67
2023/07/22 03:28:30;;;;;;;4.73;2.67;;;15.70;99.90;;;;;;5045698;28;20655;-67
2023/07/22 03:30:56;;;;;;;3.47;3.17;;;15.70;99.90;;;;;;5046208;28;20459;-67
2023/07/22 03:33:21;;;;;;;2.53;2.33;;;15.70;99.90;;;;;;5044516;28;20172;-66
2023/07/22 03:35:47;;;;;;;3.50;3.20;;;15.60;99.90;;;;;;5047279;28;20447;-67
2023/07/22 03:38:14;;;;;;;3.83;2.90;;;15.60;99.90;;;;;;5046579;28;20604;-67
2023/07/22 03:40:39;;;;;;;3.37;3.00;;;15.60;99.90;;;;;;5044785;28;20563;-66
2023/07/22 03:43:05;;;;;;;3.13;2.83;;;15.50;99.90;;;;;;5045004;28;20499;-67
2023/07/22 03:45:30;;;;;;;3.83;2.93;;;15.50;99.90;;;;;;5046175;28;20182;-67
2023/07/22 03:47:58;;;;;;;3.67;3.30;;;15.50;99.90;;;;;;5047548;28;20198;-67
2023/07/22 03:50:24;;;;;;;3.17;2.80;;;15.50;99.90;;;;;;5045362;28;20640;-67
2023/07/22 03:52:49;;;;;;;5.93;2.80;;;15.60;99.90;;;;;;5045809;28;20413;-67
2023/07/22 03:55:15;;;;;;;4.20;3.07;;;15.60;99.90;;;;;;5045021;28;20429;-67
2023/07/22 03:57:41;;;;;;;2.83;2.60;;;15.60;99.90;;;;;;5047165;28;20280;-67
2023/07/22 04:00:10;;;;;;;2.80;2.20;;;15.70;99.90;;;;;;5046072;28;20247;-67
2023/07/22 04:02:36;;;;;;;3.27;2.97;;;15.70;99.90;;;;;;5046071;28;20199;-66
2023/07/22 04:05:01;;;;;;;3.30;2.97;;;15.70;99.90;;;;;;5044035;28;20411;-67
2023/07/22 04:07:27;;;;;;;3.80;2.93;;;15.80;99.90;;;;;;5044181;28;20264;-67
2023/07/22 04:09:52;;;;;;;7.20;3.00;;;15.90;99.90;;;;;;5044826;28;20169;-67
2023/07/22 04:12:18;;;;;;;2.83;2.53;;;15.90;99.90;;;;;;5044625;28;20186;-67
2023/07/22 04:14:43;;;;;;;3.50;3.00;;;16.00;99.90;;;;;;5047244;28;20228;-67
2023/07/22 04:17:09;;;;;;;4.67;3.20;;;16.00;99.90;;;;;;5044692;28;20205;-67
2023/07/22 04:19:35;;;;;;;3.37;3.07;;;16.10;99.90;;;;;;5043910;28;20659;-67
2023/07/22 04:22:04;;;;;;;3.70;3.20;;;16.00;99.90;;;;;;5045833;28;20166;-67
2023/07/22 04:24:31;;;;;;;4.13;2.90;;;16.00;99.90;;;;;;5046776;28;20182;-67
2023/07/22 04:26:56;;;;;;;3.60;3.30;;;16.00;99.90;;;;;;5044989;28;20802;-66
2023/07/22 04:29:22;;;;;;;5.70;2.87;;;16.00;99.90;;;;;;5043973;28;20411;-66
2023/07/22 04:31:48;;;;;;;5.93;3.17;;;16.00;99.90;;;;;;5047291;28;20215;-66
2023/07/22 04:34:13;;;;;;;3.10;2.37;;;16.00;99.90;;;;;;5043430;28;20193;-66
2023/07/22 04:36:39;;;;;;;3.33;3.03;;;16.00;99.90;;;;;;5042623;28;20183;-65
2023/07/22 04:39:05;;;;;;;4.27;2.97;;;16.10;99.90;;;;;;5043110;28;20197;-66
2023/07/22 04:41:31;;;;;;;4.37;3.70;;;16.20;99.90;;;;;;5047051;28;20175;-66
2023/07/22 04:43:58;;;;;;;4.63;4.10;;;16.20;99.90;;;;;;5046962;28;20408;-64
2023/07/22 04:46:24;;;;;;;4.13;3.07;;;16.20;99.90;;;;;;5044126;28;20173;-67
2023/07/22 04:48:49;;;;;;;3.27;2.77;;;16.20;99.90;;;;;;5046319;28;20445;-66
2023/07/22 04:51:15;;;;;;;4.73;3.60;;;16.30;99.90;;;;;;5044285;28;20433;-66
2023/07/22 04:53:40;;;;;;;5.47;3.60;;;16.30;99.90;;;;;;5045984;28;20174;-65
2023/07/22 04:56:06;;;;;;;4.70;3.83;;;16.40;99.90;;;;;;5043848;28;20161;-67
2023/07/22 04:58:32;;;;;;;5.37;3.03;;;16.50;99.90;;;;;;5044790;28;20186;-67
2023/07/22 05:00:58;;;;;;;3.70;2.50;;;16.50;99.90;;;;;;5046076;28;20665;-68
2023/07/22 05:03:26;;;;;;;3.30;3.00;;;16.70;99.90;;;;;;5046786;28;20170;-66
2023/07/22 05:05:52;;;;;;;2.70;2.33;;;16.70;99.90;;;;;;5043753;28;20436;-67
2023/07/22 05:08:17;;;;;;;4.60;3.67;;;16.80;99.90;;;;;;5044259;28;20828;-66
2023/07/22 05:10:43;;;;;;;4.83;3.40;;;16.90;99.90;;;;;;5045362;28;20417;-66
2023/07/22 05:13:09;;;;;;;6.87;3.57;;;16.80;99.90;;;;;;5045486;28;20163;-66
2023/07/22 05:15:34;;;;;;;3.50;3.13;;;16.90;99.90;;;;;;5040710;28;20179;-64
2023/07/22 05:18:00;;;;;;;3.87;3.30;;;17.00;99.90;;;;;;5042665;28;20297;-66
2023/07/22 05:20:26;;;;;;;3.27;2.73;;;17.00;99.90;;;;;;5044737;28;20218;-67
2023/07/22 05:22:51;;;;;;;4.30;3.47;;;16.90;99.90;;;;;;5044467;28;20162;-66
2023/07/22 05:25:17;;;;;;;2.90;2.63;;;17.00;99.90;;;;;;5046639;28;20402;-68
2023/07/22 05:27:43;;;;;;;2.93;2.43;;;17.00;99.90;;;;;;5043231;28;20300;-67
2023/07/22 05:30:09;;;;;;;5.60;3.20;;;17.00;99.90;;;;;;5043801;28;20181;-67
2023/07/22 05:32:35;;;;;;;3.70;2.80;;;17.10;99.90;;;;;;5043686;28;20178;-66
2023/07/22 05:35:04;;;;;;;4.40;2.83;;;17.00;99.90;;;;;;5044863;28;20206;-67
2023/07/22 05:37:31;;;;;;;3.77;2.70;;;17.10;99.90;;;;;;5042389;28;20436;-67
2023/07/22 05:39:56;;;;;;;3.67;3.37;;;17.20;99.90;;;;;;5043719;28;20926;-66
2023/07/22 05:42:22;;;;;;;3.30;3.00;;;17.40;99.90;;;;;;5043262;28;20493;-67
2023/07/22 05:44:48;;;;;;;2.90;2.70;;;17.50;99.90;;;;;;5045508;28;20235;-67
2023/07/22 05:47:14;;;;;;;2.50;2.30;;;17.60;99.90;;;;;;5043652;28;20265;-67
2023/07/22 05:49:39;;;;;;;5.47;3.30;;;17.70;99.90;;;;;;5041654;28;20990;-68
2023/07/22 05:52:06;;;;;;;2.90;2.43;;;17.60;99.90;;;;;;5044755;28;20205;-66
2023/07/22 05:54:31;;;;;;;3.33;2.90;;;17.70;99.90;;;;;;5044507;28;20171;-67
2023/07/22 05:56:57;;;;;;;3.87;2.60;;;17.80;99.90;;;;;;5043928;28;20435;-67
2023/07/22 05:59:22;;;;;;;2.63;2.40;;;17.90;99.90;;;;;;5042264;28;20608;-67
2023/07/22 06:01:48;;;;;;;2.43;2.23;;;18.20;99.90;;;;;;5046152;28;20187;-67
2023/07/22 06:04:14;;;;;;;3.30;2.30;;;18.30;99.90;;;;;;5043053;28;20159;-67
2023/07/22 06:06:39;;;;;;;3.33;2.80;;;18.50;99.90;;;;;;5043405;28;20516;-68
2023/07/22 06:09:05;;;;;;;2.67;2.47;;;18.60;99.90;;;;;;5044645;28;20175;-67
2023/07/22 06:11:30;;;;;;;6.60;3.43;;;18.70;99.90;;;;;;5041816;28;20175;-68
2023/07/22 06:13:56;;;;;;;4.70;2.83;;;18.00;99.90;;;;;;5045014;28;20175;-66
2023/07/22 06:16:22;;;;;;;3.57;2.90;;;17.90;99.90;;;;;;5044593;28;20637;-65
2023/07/22 06:18:48;;;;;;;6.73;3.73;;;17.90;99.90;;;;;;5043573;28;20246;-67
2023/07/22 06:21:13;;;;;;;3.53;3.07;;;18.30;99.90;;;;;;5042910;28;20249;-67
2023/07/22 06:23:39;;;;;;;3.70;2.77;;;18.60;99.90;;;;;;5042110;28;20864;-67
2023/07/22 06:26:04;;;;;;;5.27;3.30;;;18.80;99.90;;;;;;5044000;28;20294;-66
2023/07/22 06:28:30;;;;;;;3.80;2.67;;;19.00;99.90;;;;;;5043999;28;20186;-67
2023/07/22 06:30:57;;;;;;;3.40;2.80;;;18.90;99.90;;;;;;5040944;28;20179;-67
2023/07/22 06:33:22;;;;;;;3.40;2.93;;;19.00;99.90;;;;;;5041816;28;20166;-69
2023/07/22 06:35:48;;;;;;;3.37;3.07;;;18.80;99.90;;;;;;5041592;28;20418;-67
2023/07/22 06:38:13;;;;;;;4.40;3.07;;;18.80;99.90;;;;;;5044481;28;20639;-68
2023/07/22 06:40:40;;;;;;;2.90;2.70;;;19.10;99.90;;;;;;5043053;28;20206;-66
2023/07/22 06:43:05;;;;;;;4.67;3.33;;;19.20;99.90;;;;;;5042323;28;20774;-67
2023/07/22 06:45:32;;;;;;;5.77;3.57;;;19.30;99.90;;;;;;5044053;28;20417;-67
2023/07/22 06:47:57;;;;;;;4.53;3.47;;;19.20;99.90;;;;;;5037639;28;20190;-68
2023/07/22 06:50:23;;;;;;;5.13;3.27;;;19.20;99.90;;;;;;5043330;28;20907;-68
2023/07/22 06:52:49;;;;;;;7.23;3.30;;;19.40;99.90;;;;;;5042545;28;20163;-67
2023/07/22 06:55:15;;;;;;;3.63;3.03;;;19.50;99.90;;;;;;5044284;28;20646;-67
2023/07/22 06:57:40;;;;;;;4.67;2.90;;;19.40;99.90;;;;;;5042143;28;20194;-67
2023/07/22 07:00:07;;;;;;;3.93;2.87;;;19.10;99.90;;;;;;5045166;28;20190;-66
2023/07/22 07:02:32;;;;;;;3.03;2.50;;;19.10;99.90;;;;;;5041426;28;20168;-68
2023/07/22 07:04:58;;;;;;;3.47;2.40;;;19.20;99.90;;;;;;5040710;28;20422;-67
2023/07/22 07:07:23;;;;;;;4.93;3.10;;;19.60;99.90;;;;;;5041150;28;20233;-66
2023/07/22 07:09:50;;;;;;;3.60;3.30;;;19.80;99.90;;;;;;5041384;28;20168;-66
2023/07/22 07:12:16;;;;;;;5.30;2.90;;;19.80;99.90;;;;;;5044110;28;20174;-65
2023/07/22 07:14:41;;;;;;;5.43;3.00;;;19.60;99.90;;;;;;5042899;28;20412;-66
2023/07/22 07:17:07;;;;;;;4.93;2.90;;;19.90;99.90;;;;;;5041191;28;20257;-67
2023/07/22 07:19:32;;;;;;;5.40;3.50;;;19.90;99.90;;;;;;5043672;28;20228;-67
2023/07/22 07:21:58;;;;;;;3.00;2.30;;;19.70;99.90;;;;;;5042512;28;20194;-67
2023/07/22 07:24:24;;;;;;;4.97;3.20;;;19.80;99.90;;;;;;5043711;28;20171;-68
2023/07/22 07:26:49;;;;;;;3.83;2.70;;;20.10;99.90;;;;;;5040733;28;20489;-66
2023/07/22 07:29:15;;;;;;;3.60;2.30;;;20.40;99.90;;;;;;5042957;28;20833;-66
2023/07/22 07:31:40;;;;;;;4.33;2.47;;;20.50;99.90;;;;;;5043465;28;20172;-68
2023/07/22 07:34:06;;;;;;;3.40;2.63;;;20.40;99.90;;;;;;5043591;28;20189;-67
2023/07/22 07:36:33;;;;;;;2.57;2.07;;;20.50;99.90;;;;;;5041308;28;20227;-68
2023/07/22 07:38:59;;;;;;;3.33;2.23;;;20.80;99.90;;;;;;5041750;28;20223;-68
2023/07/22 07:41:24;;;;;;;2.87;2.47;;;21.00;99.90;;;;;;5042546;28;20434;-67
2023/07/22 07:43:50;;;;;;;2.77;2.50;;;21.40;99.90;;;;;;5043678;28;20171;-67
2023/07/22 07:46:22;;;;;;;3.20;2.63;;;21.40;99.90;;;;;;5042480;28;20170;-67
2023/07/22 07:48:54;;;;;;;3.50;3.20;;;21.60;99.90;;;;;;5041352;28;20183;-67
2023/07/22 07:51:21;;;;;;;3.20;2.23;;;22.00;99.90;;;;;;5040407;28;20422;-66
2023/07/22 07:53:47;;;;;;;2.53;1.93;;;22.00;99.90;;;;;;5043560;28;20412;-67
2023/07/22 07:56:13;;;;;;;3.93;2.80;;;22.20;99.90;;;;;;5041141;28;20423;-67
2023/07/22 07:58:39;;;;;;;3.57;2.93;;;22.40;99.90;;;;;;5041923;28;20222;-67
2023/07/22 08:01:06;;;;;;;2.63;2.43;;;22.40;99.90;;;;;;5039822;28;20430;-67
2023/07/22 08:03:33;;;;;;;3.10;2.43;;;22.10;99.90;;;;;;5036665;28;20414;-66
2023/07/22 08:05:58;;;;;;;2.30;2.10;;;22.10;99.90;;;;;;5042345;28;20931;-67
2023/07/22 08:08:24;;;;;;;3.90;1.97;;;22.10;99.90;;;;;;5043279;28;20426;-67
2023/07/22 08:11:06;;;;;;;2.83;2.10;;;22.10;99.90;;;;;;5042242;28;20625;-67
2023/07/22 08:13:33;;;;;;;3.20;2.40;;;22.30;99.90;;;;;;5039759;28;20167;-67
2023/07/22 08:16:03;;;;;;;2.23;2.03;;;22.40;99.90;;;;;;5040355;28;20438;-67
2023/07/22 08:18:29;;;;;;;2.37;2.07;;;22.50;99.70;;;;;;5046258;28;20453;-67
2023/07/22 08:20:55;;;;;;;2.03;1.73;;;22.50;98.90;;;;;;5045400;28;20537;-67
2023/07/22 08:23:21;;;;;;;2.23;2.03;;;22.50;98.60;;;;;;5047260;28;20485;-67
2023/07/22 08:25:47;;;;;;;4.00;2.40;;;22.40;99.30;;;;;;5044533;28;20434;-67
2023/07/22 08:28:13;;;;;;;1.90;1.50;;;22.60;99.00;;;;;;5045854;28;20206;-67
2023/07/22 08:30:40;;;;;;;3.47;1.93;;;22.60;98.50;;;;;;5046477;28;20414;-68
2023/07/22 08:33:07;;;;;;;1.73;1.53;;;22.70;98.50;;;;;;5046739;28;20587;-67
2023/07/22 08:35:37;;;;;;;2.63;2.17;;;23.00;97.90;;;;;;5043220;28;20972;-66
2023/07/22 08:38:03;;;;;;;2.80;1.90;;;22.90;96.80;;;;;;5046324;28;20727;-67
2023/07/22 08:40:41;;;;;;;2.00;1.80;;;22.80;97.40;;;;;;5045815;28;20448;-66
2023/07/22 08:43:09;;;;;;;3.00;2.07;;;22.80;97.20;;;;;;5044529;28;20190;-66
2023/07/22 08:45:36;;;;;;;4.57;2.33;;;22.90;96.80;;;;;;5046849;28;20855;-66
2023/07/22 08:48:07;;;;;;;2.67;2.37;;;23.00;97.20;;;;;;5042074;28;20418;-66
2023/07/22 08:50:44;;;;;;;2.57;2.27;;;23.10;96.30;;;;;;5046657;28;20412;-66
2023/07/22 08:53:11;;;;;;;1.77;1.60;;;23.30;96.40;;;;;;5045827;28;20896;-67
2023/07/22 08:55:40;;;;;;;2.10;1.80;;;23.50;95.90;;;;;;5045632;28;20403;-67
2023/07/22 08:58:08;;;;;;;2.93;1.57;;;23.70;95.80;;;;;;5044279;28;20430;-67
2023/07/22 09:00:34;;;;;;;2.10;1.60;;;23.80;94.60;;;;;;5046850;28;20441;-67
2023/07/22 09:03:00;;;;;;;3.70;1.80;;;23.90;94.40;;;;;;5042378;28;20401;-67
2023/07/22 09:05:26;;;;;;;3.20;2.13;;;24.10;94.30;;;;;;5045537;28;20770;-66
2023/07/22 09:07:52;;;;;;;3.10;1.60;;;24.30;91.60;;;;;;5043553;28;20513;-66
2023/07/22 09:10:20;;;;;;;2.70;1.93;;;24.20;90.80;;;;;;5045355;28;20187;-67
2023/07/22 09:12:46;;;;;;;2.27;1.73;;;24.20;90.10;;;;;;5045367;28;20460;-67
2023/07/22 09:15:12;;;;;;;2.43;1.90;;;24.30;91.50;;;;;;5045872;28;20397;-66
2023/07/22 09:17:39;;;;;;;2.20;1.60;;;24.30;90.20;;;;;;5042995;28;20458;-67
2023/07/22 09:20:05;;;;;;;2.23;1.60;;;24.50;90.40;;;;;;5045780;28;20539;-66
2023/07/22 09:22:32;;;;;;;2.53;2.20;;;24.20;88.50;;;;;;5045021;28;20405;-65
2023/07/22 09:25:18;;;;;;;1.77;1.63;;;24.10;88.10;;;;;;5043080;28;20901;-66
2023/07/22 09:27:44;;;;;;;2.73;2.00;;;23.90;89.60;;;;;;5043157;28;20418;-67
2023/07/22 09:30:31;;;;;;;4.10;1.77;;;24.10;89.30;;;;;;5042465;28;20399;-68
2023/07/22 09:33:02;;;;;;;2.03;1.40;;;24.20;90.50;;;;;;5044584;28;20489;-67
2023/07/22 09:35:30;;;;;;;2.57;2.00;;;24.00;89.40;;;;;;5043750;28;20777;-67
2023/07/22 09:37:56;;;;;;;2.07;1.70;;;23.90;90.00;;;;;;5042983;28;20421;-68
2023/07/22 09:40:28;;;;;;;2.23;2.03;;;23.80;90.20;;;;;;5044362;28;20446;-67
2023/07/22 09:42:56;;;;;;;2.10;1.90;;;23.90;90.10;;;;;;5045261;28;20394;-67
2023/07/22 09:45:24;;;;;;;2.47;1.70;;;24.10;89.10;;;;;;5043608;28;20408;-67
2023/07/22 09:47:51;;;;;;;1.90;1.70;;;24.40;88.50;;;;;;5042970;28;20788;-67
2023/07/22 09:50:22;;;;;;;2.23;1.80;;;24.60;88.20;;;;;;5041590;28;20789;-67
2023/07/22 09:52:54;;;;;;;2.73;1.60;;;24.80;88.70;;;;;;5038851;28;20401;-67
2023/07/22 09:55:22;;;;;;;2.50;2.00;;;24.80;87.20;;;;;;5044848;28;20486;-68
2023/07/22 09:57:52;;;;;;;2.50;2.13;;;25.00;88.30;;;;;;5043613;28;20973;-68
2023/07/22 10:00:24;;;;;;;2.37;1.57;;;24.90;86.60;;;;;;5045423;28;20455;-68
2023/07/22 10:02:50;;;;;;;2.93;1.90;;;24.70;85.60;;;;;;5042956;28;20456;-66
2023/07/22 10:05:19;;;;;;;2.10;1.90;;;24.80;85.80;;;;;;5044351;28;20406;-67
2023/07/22 10:07:50;;;;;;;2.40;2.10;;;25.20;86.40;;;;;;5042206;28;20429;-67
2023/07/22 10:10:19;;;;;;;2.07;1.87;;;25.60;83.20;;;;;;5043697;28;20393;-66
2023/07/22 10:12:45;;;;;;;2.67;1.57;;;25.90;82.90;;;;;;5043512;28;20766;-67
2023/07/22 10:15:14;;;;;;;1.83;1.63;;;25.80;80.50;;;;;;5045481;28;20844;-67
2023/07/22 10:17:41;;;;;;;2.10;1.47;;;26.00;78.80;;;;;;5038307;28;20469;-66
2023/07/22 10:20:15;;;;;;;2.03;1.83;;;26.40;79.70;;;;;;5041596;28;20437;-67
2023/07/22 10:22:44;;;;;;;1.73;1.60;;;26.50;77.90;;;;;;5043652;28;20394;-67
2023/07/22 10:25:21;;;;;;;2.63;1.63;;;26.20;77.20;;;;;;5043701;28;20504;-67
2023/07/22 10:27:48;;;;;;;2.23;1.87;;;25.70;78.60;;;;;;5043177;28;20428;-67
2023/07/22 10:30:16;;;;;;;3.13;1.57;;;25.50;78.90;;;;;;5041832;28;20858;-67
2023/07/22 10:32:47;;;;;;;3.53;1.67;;;25.50;77.80;;;;;;5044864;28;20393;-67
2023/07/22 10:35:21;;;;;;;2.33;2.13;;;25.60;77.30;;;;;;5039002;28;20925;-67
2023/07/22 10:37:47;;;;;;;1.50;1.40;;;25.20;78.00;;;;;;5044321;28;20429;-68
2023/07/22 10:40:27;;;;;;;2.30;1.63;;;25.40;78.80;;;;;;5042909;28;20449;-67
2023/07/22 10:43:05;;;;;;;2.47;1.93;;;25.70;78.00;;;;;;5042479;28;20401;-67
2023/07/22 10:45:33;;;;;;;2.30;1.83;;;26.00;75.80;;;;;;5043654;28;20433;-67
2023/07/22 10:48:10;;;;;;;1.70;1.37;;;26.20;77.40;;;;;;5040998;28;20440;-67
2023/07/22 10:50:41;;;;;;;1.73;1.53;;;26.30;75.40;;;;;;5040366;28;20569;-67
2023/07/22 10:53:09;;;;;;;1.40;1.30;;;26.40;76.00;;;;;;5045100;28;20447;-67
2023/07/22 10:56:16;;;;;;;2.37;1.87;;;26.60;75.40;;;;;;5041864;28;20421;-67
2023/07/22 10:58:45;;;;;;;2.57;1.80;;;26.90;73.60;;;;;;5039013;28;20433;-66
2023/07/22 11:01:28;;;;;;;4.13;1.90;;;26.60;75.80;;;;;;5039861;28;20405;-68
2023/07/22 11:04:13;;;;;;;2.20;1.90;;;27.00;77.60;;;;;;5038783;28;20391;-67
2023/07/22 11:06:53;;;;;;;1.97;1.77;;;27.10;73.20;;;;;;5043471;28;20875;-68
2023/07/22 11:09:33;;;;;;;2.73;2.20;;;27.10;71.20;;;;;;5041510;28;20908;-68
2023/07/22 11:12:04;;;;;;;2.37;1.63;;;26.90;72.20;;;;;;5042542;28;20398;-68
2023/07/22 11:14:48;;;;;;;3.03;2.50;;;26.60;72.40;;;;;;5042341;28;20415;-68
2023/07/22 11:17:14;;;;;;;2.53;1.80;;;26.70;74.20;;;;;;5038870;28;20448;-68
2023/07/22 11:19:40;;;;;;;2.33;2.13;;;26.50;72.60;;;;;;5042510;28;20479;-68
2023/07/22 11:22:06;;;;;;;2.20;1.63;;;26.10;72.60;;;;;;5041697;28;20431;-68
2023/07/22 11:24:37;;;;;;;2.37;2.17;;;26.00;75.60;;;;;;5041819;28;20901;-68
2023/07/22 11:27:04;;;;;;;1.70;1.50;;;25.60;74.50;;;;;;5037872;28;20894;-68
2023/07/22 11:29:30;;;;;;;2.57;2.20;;;25.70;74.50;;;;;;5043231;28;20823;-67
2023/07/22 11:31:56;;;;;;;2.77;1.80;;;25.60;75.80;;;;;;5042308;28;20414;-67
2023/07/22 11:34:24;;;;;;;3.43;1.77;;;25.90;76.80;;;;;;5042781;28;20240;-67
2023/07/22 11:36:50;;;;;;;2.40;2.00;;;25.80;76.10;;;;;;5041617;28;20508;-67
2023/07/22 11:39:27;;;;;;;2.00;1.80;;;25.90;76.80;;;;;;5042618;28;20454;-67
2023/07/22 11:41:53;;;;;;;4.33;2.00;;;27.20;74.10;;;;;;5041264;28;20420;-68
2023/07/22 11:44:22;;;;;;;4.17;1.93;;;27.50;74.00;;;;;;5043861;28;20405;-71
2023/07/22 11:47:28;;;;;;;2.10;1.90;;;28.30;71.30;;;;;;5040897;28;20491;-70
2023/07/22 11:49:53;;;;;;;4.07;1.77;;;28.90;69.00;;;;;;5041333;28;20422;-70
2023/07/22 11:52:19;;;;;;;2.20;2.00;;;29.90;66.80;;;;;;5045070;28;20401;-70
2023/07/22 11:54:46;;;;;;;5.20;1.80;;;31.50;62.60;;;;;;5045654;28;20175;-70
2023/07/22 11:57:18;;;;;;;2.20;1.73;;;31.20;62.80;;;;;;5047324;28;20198;-70
2023/07/22 11:59:54;;;;;;;3.00;2.13;;;30.50;61.90;;;;;;5041047;28;20449;-69
2023/07/22 12:02:22;;;;;;;3.00;2.07;;;30.30;66.60;;;;;;5045257;28;20408;-69
2023/07/22 12:04:55;;;;;;;2.00;1.80;;;31.20;60.40;;;;;;5044247;28;20515;-70
2023/07/22 12:07:23;;;;;;;2.70;2.13;;;30.80;60.20;;;;;;5046511;28;20908;-69
2023/07/22 12:09:49;;;;;;;2.93;1.83;;;29.90;63.00;;;;;;5045546;28;20739;-69
2023/07/22 12:12:15;;;;;;;2.40;2.13;;;29.10;64.60;;;;;;5045114;28;20413;-70
2023/07/22 12:14:41;;;;;;;2.03;1.60;;;28.10;66.30;;;;;;5044191;28;20436;-69
2023/07/22 12:17:09;;;;;;;2.50;2.20;;;27.40;68.80;;;;;;5046474;28;20716;-69
2023/07/22 12:19:35;;;;;;;2.20;1.90;;;27.10;69.90;;;;;;5045337;28;20460;-69
2023/07/22 12:22:01;;;;;;;2.50;2.30;;;26.90;69.70;;;;;;5044281;28;20397;-69
2023/07/22 12:24:28;;;;;;;2.27;2.07;;;27.00;69.10;;;;;;5044092;28;20484;-69
2023/07/22 12:26:54;;;;;;;2.70;2.00;;;27.80;67.80;;;;;;5045270;28;20445;-69
2023/07/22 12:29:20;;;;;;;3.77;2.00;;;28.80;66.30;;;;;;5045811;28;20775;-70
2023/07/22 12:31:45;;;;;;;2.07;1.87;;;30.70;63.20;;;;;;5045146;28;20180;-70
2023/07/22 12:34:11;;;;;;;4.10;2.03;;;31.20;58.10;;;;;;5044107;28;20703;-70
2023/07/22 12:36:36;;;;;;;1.83;1.63;;;31.90;57.70;;;;;;5045771;28;20533;-69
2023/07/22 12:39:02;;;;;;;2.20;2.00;;;33.00;56.40;;;;;;5043782;28;20527;-70
2023/07/22 12:41:28;;;;;;;2.53;1.70;;;32.90;55.30;;;;;;5044319;28;20637;-70
2023/07/22 12:43:54;;;;;;;2.70;1.50;;;31.90;57.00;;;;;;5044426;28;20395;-69
2023/07/22 12:46:19;;;;;;;2.13;1.93;;;30.90;57.80;;;;;;5046440;28;20293;-69
2023/07/22 12:48:45;;;;;;;3.37;1.90;;;29.70;58.50;;;;;;5043806;28;20222;-70